createdAt,value
2019-02-11T00:01:08.643Z,5.50
2019-02-11T00:03:48.215Z,5.50
2019-02-11T00:06:28.418Z,5.50
2019-02-11T00:09:09.055Z,5.50
2019-02-11T00:14:35.104Z,5.50
2019-02-11T00:17:13.059Z,5.50
2019-02-11T00:19:59.624Z,5.50
2019-02-11T00:22:43.684Z,5.50
2019-02-11T00:25:23.677Z,5.50
2019-02-11T00:28:06.437Z,5.50
2019-02-11T00:30:37.700Z,5.50
2019-02-11T00:33:24.635Z,5.50
2019-02-11T00:36:02.347Z,5.50
2019-02-11T00:38:49.253Z,5.50
2019-02-11T00:41:29.542Z,5.60
2019-02-11T00:44:08.804Z,5.60
2019-02-11T00:49:38.948Z,5.60
2019-02-11T00:52:19.618Z,5.50
2019-02-11T00:54:59.178Z,5.50
2019-02-11T01:00:19.439Z,5.50
2019-02-11T01:03:02.241Z,5.60
2019-02-11T01:05:41.934Z,5.50
2019-02-11T01:08:22.313Z,5.50
2019-02-11T01:11:02.081Z,5.40
2019-02-11T01:16:25.577Z,5.20
2019-02-11T01:19:05.600Z,5.20
2019-02-11T01:21:46.919Z,5.10
2019-02-11T01:24:26.900Z,5.10
2019-02-11T01:27:06.814Z,5.00
2019-02-11T01:29:47.321Z,4.90
2019-02-11T01:32:30.192Z,4.90
2019-02-11T01:35:10.004Z,4.90
2019-02-11T01:37:50.745Z,4.80
2019-02-11T01:40:30.163Z,4.80
2019-02-11T01:43:10.288Z,4.70
2019-02-11T01:45:50.556Z,4.70
2019-02-11T01:48:30.820Z,4.70
2019-02-11T01:51:10.264Z,4.60
2019-02-11T01:53:50.396Z,4.50
2019-02-11T01:56:30.283Z,4.50
2019-02-11T01:59:10.476Z,4.40
2019-02-11T02:01:51.331Z,4.40
2019-02-11T02:04:30.754Z,4.40
2019-02-11T02:07:11.065Z,4.40
2019-02-11T02:09:51.294Z,4.40
2019-02-11T02:12:31.668Z,4.30
2019-02-11T02:15:11.471Z,4.30
2019-02-11T02:17:51.543Z,4.30
2019-02-11T02:20:31.945Z,4.30
2019-02-11T02:23:12.101Z,4.30
2019-02-11T02:25:52.294Z,4.30
2019-02-11T02:28:32.506Z,4.20
2019-02-11T02:31:12.711Z,4.30
2019-02-11T02:33:52.699Z,4.30
2019-02-11T02:36:32.043Z,4.30
2019-02-11T02:39:15.150Z,4.30
2019-02-11T02:41:55.125Z,4.30
2019-02-11T02:44:35.948Z,4.30
2019-02-11T02:47:16.199Z,4.20
2019-02-11T02:49:55.791Z,4.20
2019-02-11T02:52:36.399Z,4.20
2019-02-11T02:55:16.400Z,4.20
2019-02-11T02:57:56.577Z,4.20
2019-02-11T03:00:37.348Z,4.20
2019-02-11T03:06:17.705Z,4.20
2019-02-11T03:08:57.241Z,4.20
2019-02-11T03:11:37.384Z,4.20
2019-02-11T03:14:17.530Z,4.20
2019-02-11T03:16:57.943Z,4.20
2019-02-11T03:19:38.023Z,4.20
2019-02-11T03:22:17.974Z,4.20
2019-02-11T03:24:57.943Z,4.20
2019-02-11T03:27:37.623Z,4.10
2019-02-11T03:30:17.798Z,4.10
2019-02-11T03:32:58.234Z,4.10
2019-02-11T03:35:38.749Z,4.20
2019-02-11T03:38:18.018Z,4.20
2019-02-11T03:40:58.146Z,4.20
2019-02-11T03:43:37.896Z,4.20
2019-02-11T03:46:17.965Z,4.10
2019-02-11T03:48:58.412Z,4.20
2019-02-11T03:51:38.444Z,4.20
2019-02-11T03:54:18.312Z,4.20
2019-02-11T03:56:59.032Z,4.20
2019-02-11T03:59:26.728Z,4.20
2019-02-11T04:02:14.387Z,4.20
2019-02-11T04:05:01.891Z,4.20
2019-02-11T04:07:41.931Z,4.30
2019-02-11T04:10:22.031Z,4.20
2019-02-11T04:13:01.994Z,4.20
2019-02-11T04:15:42.169Z,4.10
2019-02-11T04:18:22.012Z,4.10
2019-02-11T04:21:02.336Z,4.10
2019-02-11T04:23:42.300Z,4.00
2019-02-11T04:26:22.350Z,4.00
2019-02-11T04:29:02.248Z,4.00
2019-02-11T04:31:42.269Z,4.10
2019-02-11T04:34:22.454Z,4.10
2019-02-11T04:37:02.468Z,4.20
2019-02-11T04:39:42.625Z,4.20
2019-02-11T04:42:22.721Z,4.20
2019-02-11T04:45:02.306Z,4.30
2019-02-11T04:47:42.500Z,4.20
2019-02-11T04:50:22.653Z,4.30
2019-02-11T04:53:03.018Z,4.30
2019-02-11T04:55:43.190Z,4.30
2019-02-11T04:58:23.044Z,4.20
2019-02-11T05:01:03.052Z,4.20
2019-02-11T05:03:43.253Z,4.20
2019-02-11T05:06:23.158Z,4.20
2019-02-11T05:09:03.530Z,4.20
2019-02-11T05:11:45.339Z,4.20
2019-02-11T05:14:25.612Z,4.20
2019-02-11T05:17:05.203Z,4.20
2019-02-11T05:19:45.490Z,4.20
2019-02-11T05:22:25.595Z,4.10
2019-02-11T05:25:05.990Z,4.00
2019-02-11T05:27:45.361Z,3.90
2019-02-11T05:30:25.382Z,4.00
2019-02-11T05:33:05.607Z,3.90
2019-02-11T05:35:45.798Z,3.90
2019-02-11T05:38:25.732Z,3.80
2019-02-11T05:41:05.945Z,3.80
2019-02-11T05:43:46.272Z,3.60
2019-02-11T05:46:26.332Z,3.70
2019-02-11T05:49:06.340Z,3.70
2019-02-11T05:51:46.553Z,3.70
2019-02-11T05:57:15.836Z,3.80
2019-02-11T05:59:56.059Z,3.90
2019-02-11T06:02:35.793Z,4.00
2019-02-11T06:05:15.692Z,4.10
2019-02-11T06:07:55.697Z,4.10
2019-02-11T06:10:35.765Z,4.20
2019-02-11T06:13:15.789Z,4.30
2019-02-11T06:15:55.598Z,4.40
2019-02-11T06:18:36.595Z,4.40
2019-02-11T06:21:16.641Z,4.50
2019-02-11T06:23:56.811Z,4.60
2019-02-11T06:26:37.030Z,4.60
2019-02-11T06:29:19.022Z,4.60
2019-02-11T06:31:58.795Z,4.50
2019-02-11T06:34:42.862Z,4.40
2019-02-11T06:37:23.644Z,4.40
2019-02-11T06:40:02.991Z,4.40
2019-02-11T06:42:43.738Z,4.30
2019-02-11T06:45:23.405Z,4.30
2019-02-11T06:48:03.684Z,4.20
2019-02-11T06:50:43.184Z,4.20
2019-02-11T06:53:23.372Z,4.20
2019-02-11T06:56:03.554Z,4.10
2019-02-11T06:58:43.677Z,4.00
2019-02-11T07:01:23.638Z,4.10
2019-02-11T07:04:04.025Z,4.10
2019-02-11T07:06:43.742Z,4.20
2019-02-11T07:09:23.941Z,4.20
2019-02-11T07:12:03.835Z,4.20
2019-02-11T07:14:43.238Z,4.30
2019-02-11T07:17:23.307Z,4.40
2019-02-11T07:20:03.659Z,4.40
2019-02-11T07:22:44.147Z,4.50
2019-02-11T07:28:20.413Z,4.60
2019-02-11T07:31:00.112Z,4.70
2019-02-11T07:33:40.223Z,4.70
2019-02-11T07:36:20.598Z,4.80
2019-02-11T07:39:00.645Z,4.90
2019-02-11T07:42:00.355Z,5.10
2019-02-11T07:44:44.099Z,5.20
2019-02-11T07:47:24.558Z,5.20
2019-02-11T07:50:04.440Z,5.20
2019-02-11T07:52:45.081Z,5.20
2019-02-11T07:55:24.665Z,5.20
2019-02-11T07:58:04.750Z,5.30
2019-02-11T08:00:44.787Z,5.30
2019-02-11T08:03:25.300Z,5.40
2019-02-11T08:06:05.443Z,5.40
2019-02-11T08:08:45.630Z,5.40
2019-02-11T08:11:29.493Z,5.50
2019-02-11T08:14:09.043Z,5.70
2019-02-11T08:16:49.295Z,5.70
2019-02-11T08:19:29.371Z,5.80
2019-02-11T08:22:09.223Z,5.80
2019-02-11T08:24:49.087Z,5.90
2019-02-11T08:27:29.457Z,5.80
2019-02-11T08:30:09.688Z,5.80
2019-02-11T08:32:50.741Z,5.80
2019-02-11T08:35:30.844Z,5.80
2019-02-11T08:38:11.049Z,5.90
2019-02-11T08:40:51.417Z,5.90
2019-02-11T08:43:31.586Z,5.90
2019-02-11T08:46:15.606Z,5.90
2019-02-11T08:48:55.120Z,5.90
2019-02-11T08:51:35.301Z,5.90
2019-02-11T08:54:15.377Z,5.90
2019-02-11T08:56:55.291Z,5.90
2019-02-11T08:59:35.234Z,5.90
2019-02-11T09:02:15.441Z,5.80
2019-02-11T09:04:55.528Z,5.80
2019-02-11T09:07:35.407Z,5.80
2019-02-11T09:10:16.595Z,5.70
2019-02-11T09:12:57.404Z,5.80
2019-02-11T09:15:37.521Z,6.00
2019-02-11T09:18:17.918Z,6.10
2019-02-11T09:20:57.485Z,6.20
2019-02-11T09:23:37.973Z,6.30
2019-02-11T09:26:17.757Z,6.20
2019-02-11T09:28:57.535Z,6.20
2019-02-11T09:31:37.305Z,6.20
2019-02-11T09:34:17.412Z,6.20
2019-02-11T09:36:57.622Z,6.30
2019-02-11T09:39:37.596Z,6.20
2019-02-11T09:42:17.774Z,6.20
2019-02-11T09:44:58.005Z,6.40
2019-02-11T09:47:38.059Z,6.60
2019-02-11T09:50:17.850Z,6.60
2019-02-11T09:55:47.453Z,6.50
2019-02-11T09:58:26.911Z,6.40
2019-02-11T10:01:07.368Z,6.20
2019-02-11T10:03:47.874Z,6.30
2019-02-11T10:06:27.768Z,6.40
2019-02-11T10:09:07.681Z,6.40
2019-02-11T10:11:47.580Z,6.50
2019-02-11T10:14:28.837Z,6.30
2019-02-11T10:17:08.792Z,6.30
2019-02-11T10:19:49.059Z,6.50
2019-02-11T10:22:29.955Z,6.60
2019-02-11T10:25:10.142Z,6.70
2019-02-11T10:27:50.044Z,6.90
2019-02-11T10:30:30.444Z,7.10
2019-02-11T10:33:09.690Z,7.20
2019-02-11T10:35:49.030Z,7.20
2019-02-11T10:38:36.219Z,7.20
2019-02-11T10:41:11.487Z,7.50
2019-02-11T10:43:51.342Z,7.40
2019-02-11T10:46:35.957Z,7.40
2019-02-11T10:49:18.064Z,7.50
2019-02-11T10:51:58.378Z,7.70
2019-02-11T10:54:38.068Z,7.60
2019-02-11T11:00:33.737Z,9.00
2019-02-11T11:03:20.458Z,10.50
2019-02-11T11:05:59.889Z,11.20
2019-02-11T11:08:39.909Z,10.40
2019-02-11T11:11:18.195Z,9.90
2019-02-11T11:14:05.165Z,9.30
2019-02-11T11:16:46.089Z,8.90
2019-02-11T11:19:26.262Z,8.20
2019-02-11T11:24:50.420Z,7.80
2019-02-11T11:27:30.767Z,7.60
2019-02-11T11:32:56.829Z,7.80
2019-02-11T11:35:36.977Z,7.80
2019-02-11T11:38:20.828Z,7.80
2019-02-11T11:41:00.832Z,7.80
2019-02-11T11:43:40.906Z,7.80
2019-02-11T11:46:21.222Z,8.00
2019-02-11T11:49:01.201Z,8.20
2019-02-11T11:51:41.150Z,8.40
2019-02-11T11:54:21.164Z,8.50
2019-02-11T11:57:01.247Z,8.70
2019-02-11T11:59:41.265Z,8.90
2019-02-11T12:02:21.323Z,8.90
2019-02-11T12:05:01.270Z,9.10
2019-02-11T12:07:41.170Z,9.10
2019-02-11T12:10:21.101Z,9.20
2019-02-11T12:13:20.701Z,9.20
2019-02-11T12:15:43.274Z,9.00
2019-02-11T12:18:24.459Z,8.90
2019-02-11T12:21:04.297Z,9.00
2019-02-11T12:23:44.282Z,9.20
2019-02-11T12:26:24.805Z,9.10
2019-02-11T12:29:04.345Z,9.20
2019-02-11T12:31:44.663Z,9.30
2019-02-11T12:34:27.004Z,9.20
2019-02-11T12:37:09.513Z,9.20
2019-02-11T12:39:49.319Z,9.20
2019-02-11T12:42:29.411Z,9.10
2019-02-11T12:47:49.596Z,9.80
2019-02-11T12:50:29.945Z,10.30
2019-02-11T12:53:10.711Z,10.60
2019-02-11T12:55:50.645Z,11.40
2019-02-11T12:58:30.774Z,12.10
2019-02-11T13:01:10.921Z,10.90
2019-02-11T13:03:50.563Z,9.90
2019-02-11T13:06:30.441Z,10.00
2019-02-11T13:09:10.699Z,10.60
2019-02-11T13:11:50.575Z,11.10
2019-02-11T13:17:15.471Z,10.40
2019-02-11T13:20:07.420Z,10.80
2019-02-11T13:22:38.377Z,11.40
2019-02-11T13:25:19.131Z,11.60
2019-02-11T13:28:00.267Z,10.60
2019-02-11T13:30:40.385Z,10.30
2019-02-11T13:33:20.636Z,10.50
2019-02-11T13:36:00.682Z,10.80
2019-02-11T13:38:40.807Z,10.50
2019-02-11T13:41:20.662Z,10.30
2019-02-11T13:44:00.312Z,10.00
2019-02-11T13:46:40.669Z,9.60
2019-02-11T13:49:20.756Z,9.40
2019-02-11T13:52:00.707Z,9.10
2019-02-11T13:54:40.836Z,9.10
2019-02-11T13:57:21.896Z,9.10
2019-02-11T14:00:01.839Z,9.00
2019-02-11T14:02:42.035Z,9.10
2019-02-11T14:05:22.320Z,9.00
2019-02-11T14:08:03.274Z,9.10
2019-02-11T14:10:43.255Z,9.20
2019-02-11T14:13:23.086Z,9.40
2019-02-11T14:16:03.265Z,9.20
2019-02-11T14:18:42.789Z,8.90
2019-02-11T14:21:23.006Z,8.80
2019-02-11T14:24:03.128Z,8.90
2019-02-11T14:26:42.849Z,8.70
2019-02-11T14:29:23.176Z,8.40
2019-02-11T14:32:03.612Z,8.30
2019-02-11T14:34:43.342Z,8.20
2019-02-11T14:37:22.911Z,8.30
2019-02-11T14:40:03.077Z,8.30
2019-02-11T14:42:42.805Z,8.10
2019-02-11T14:45:23.230Z,8.10
2019-02-11T14:48:03.514Z,8.20
2019-02-11T14:50:43.513Z,8.20
2019-02-11T14:53:23.876Z,8.20
2019-02-11T14:56:03.847Z,8.00
2019-02-11T14:58:44.004Z,8.00
2019-02-11T15:01:23.532Z,8.00
2019-02-11T15:04:03.812Z,8.00
2019-02-11T15:06:43.793Z,8.00
2019-02-11T15:09:23.652Z,8.10
2019-02-11T15:12:03.736Z,8.20
2019-02-11T15:14:44.060Z,8.20
2019-02-11T15:17:23.909Z,8.20
2019-02-11T15:20:04.166Z,8.20
2019-02-11T15:22:44.245Z,8.10
2019-02-11T15:25:24.258Z,8.10
2019-02-11T15:28:04.203Z,8.00
2019-02-11T15:30:44.408Z,8.20
2019-02-11T15:33:24.510Z,8.40
2019-02-11T15:35:52.162Z,8.40
2019-02-11T15:38:19.879Z,8.40
2019-02-11T15:41:00.456Z,8.40
2019-02-11T15:43:40.010Z,8.40
2019-02-11T15:46:20.419Z,8.40
2019-02-11T15:49:00.245Z,8.20
2019-02-11T15:51:40.052Z,8.10
2019-02-11T15:54:20.574Z,8.00
2019-02-11T15:57:00.434Z,8.00
2019-02-11T15:59:40.577Z,8.00
2019-02-11T16:02:20.696Z,7.90
2019-02-11T16:05:02.581Z,7.80
2019-02-11T16:07:42.948Z,7.70
2019-02-11T16:10:23.299Z,7.50
2019-02-11T16:13:03.403Z,7.50
2019-02-11T16:15:43.705Z,7.40
2019-02-11T16:18:24.109Z,7.40
2019-02-11T16:21:03.867Z,7.50
2019-02-11T16:23:44.469Z,7.50
2019-02-11T16:29:04.070Z,7.50
2019-02-11T16:31:43.945Z,7.50
2019-02-11T16:34:24.048Z,7.50
2019-02-11T16:37:04.342Z,7.10
2019-02-11T16:39:44.116Z,6.70
2019-02-11T16:42:24.150Z,6.40
2019-02-11T16:45:04.282Z,6.30
2019-02-11T16:47:45.251Z,6.20
2019-02-11T16:50:25.582Z,6.20
2019-02-11T16:53:05.714Z,6.20
2019-02-11T16:55:47.917Z,6.20
2019-02-11T16:58:27.843Z,6.20
2019-02-11T17:01:07.912Z,6.20
2019-02-11T17:03:48.242Z,6.20
2019-02-11T17:06:28.253Z,6.10
2019-02-11T17:09:08.455Z,6.10
2019-02-11T17:11:48.653Z,6.00
2019-02-11T17:14:28.488Z,5.80
2019-02-11T17:17:08.360Z,5.70
2019-02-11T17:19:48.447Z,5.70
2019-02-11T17:22:28.294Z,5.60
2019-02-11T17:25:08.560Z,5.50
2019-02-11T17:30:47.149Z,5.30
2019-02-11T17:33:28.469Z,5.20
2019-02-11T17:35:56.228Z,5.20
2019-02-11T17:38:24.552Z,5.20
2019-02-11T17:41:04.442Z,5.20
2019-02-11T17:43:44.489Z,5.20
2019-02-11T17:46:25.560Z,5.20
2019-02-11T17:49:06.034Z,5.30
2019-02-11T17:51:45.947Z,5.30
2019-02-11T17:54:24.157Z,5.30
2019-02-11T17:57:11.171Z,5.30
2019-02-11T17:59:51.780Z,5.40
2019-02-11T18:02:31.735Z,5.40
2019-02-11T18:05:12.684Z,5.40
2019-02-11T18:07:52.918Z,5.50
2019-02-11T18:10:32.736Z,5.50
2019-02-11T18:13:13.795Z,5.50
2019-02-11T18:15:53.555Z,5.50
2019-02-11T18:21:14.911Z,5.80
2019-02-11T18:23:55.291Z,5.80
2019-02-11T18:26:35.499Z,5.80
2019-02-11T18:29:15.553Z,5.80
2019-02-11T18:34:35.682Z,5.70
2019-02-11T18:37:15.903Z,5.70
2019-02-11T18:39:57.885Z,5.80
2019-02-11T18:42:38.289Z,5.80
2019-02-11T18:45:18.013Z,5.90
2019-02-11T18:47:58.552Z,6.00
2019-02-11T18:50:39.221Z,5.90
2019-02-11T18:53:18.531Z,6.00
2019-02-11T18:55:58.879Z,6.10
2019-02-11T18:58:39.937Z,6.10
2019-02-11T19:01:20.248Z,6.00
2019-02-11T19:04:00.202Z,5.90
2019-02-11T19:06:40.055Z,5.90
2019-02-11T19:09:20.237Z,5.80
2019-02-11T19:12:00.460Z,5.80
2019-02-11T19:14:40.551Z,5.70
2019-02-11T19:17:21.083Z,5.70
2019-02-11T19:20:01.564Z,5.70
2019-02-11T19:22:43.079Z,5.70
2019-02-11T19:25:23.470Z,5.70
2019-02-11T19:28:04.009Z,5.60
2019-02-11T19:30:43.445Z,5.60
2019-02-11T19:33:23.878Z,5.70
2019-02-11T19:36:04.598Z,5.70
2019-02-11T19:38:45.058Z,5.70
2019-02-11T19:41:24.555Z,5.60
2019-02-11T19:44:04.633Z,5.50
2019-02-11T19:46:44.388Z,5.50
2019-02-11T19:49:24.612Z,5.30
2019-02-11T19:52:04.771Z,5.00
2019-02-11T19:54:45.036Z,4.90
2019-02-11T19:57:24.761Z,4.80
2019-02-11T20:00:05.329Z,4.70
2019-02-11T20:02:47.054Z,4.70
2019-02-11T20:05:27.416Z,4.70
2019-02-11T20:08:07.148Z,4.60
2019-02-11T20:10:47.507Z,4.50
2019-02-11T20:13:30.597Z,4.50
2019-02-11T20:16:10.868Z,4.30
2019-02-11T20:18:50.824Z,4.10
2019-02-11T20:21:30.875Z,4.00
2019-02-11T20:24:10.994Z,3.90
2019-02-11T20:26:50.994Z,3.80
2019-02-11T20:29:31.105Z,3.70
2019-02-11T20:32:11.409Z,3.60
2019-02-11T20:34:51.119Z,3.60
2019-02-11T20:37:31.529Z,3.60
2019-02-11T20:40:11.645Z,3.60
2019-02-11T20:42:51.844Z,3.50
2019-02-11T20:45:32.023Z,3.40
2019-02-11T20:48:11.955Z,3.40
2019-02-11T20:50:52.078Z,3.30
2019-02-11T20:53:32.317Z,3.30
2019-02-11T20:56:12.658Z,3.20
2019-02-11T20:58:52.648Z,3.00
2019-02-11T21:01:32.784Z,3.00
2019-02-11T21:04:13.271Z,3.00
2019-02-11T21:06:53.372Z,3.10
2019-02-11T21:09:33.154Z,3.10
2019-02-11T21:12:13.450Z,3.00
2019-02-11T21:14:53.699Z,2.90
2019-02-11T21:17:33.681Z,2.80
2019-02-11T21:20:17.587Z,2.70
2019-02-11T21:22:56.946Z,2.60
2019-02-11T21:25:36.996Z,2.60
2019-02-11T21:28:17.204Z,2.70
2019-02-11T21:30:57.265Z,2.60
2019-02-11T21:33:37.467Z,2.60
2019-02-11T21:36:17.352Z,2.50
2019-02-11T21:38:57.689Z,2.60
2019-02-11T21:41:37.674Z,2.80
2019-02-11T21:44:17.938Z,2.90
2019-02-11T21:46:58.013Z,2.70
2019-02-11T21:49:38.308Z,2.60
2019-02-11T21:52:18.184Z,2.50
2019-02-11T21:54:58.168Z,2.40
2019-02-11T21:57:38.387Z,2.40
2019-02-11T22:00:18.357Z,2.30
2019-02-11T22:02:59.460Z,2.30
2019-02-11T22:05:39.482Z,2.20
2019-02-11T22:08:19.482Z,2.20
2019-02-11T22:10:59.779Z,2.20
2019-02-11T22:13:39.947Z,2.10
2019-02-11T22:16:20.101Z,2.10
2019-02-11T22:19:00.197Z,2.10
2019-02-11T22:21:40.182Z,2.10
2019-02-11T22:24:20.124Z,2.10
2019-02-11T22:27:00.618Z,2.20
2019-02-11T22:29:40.246Z,2.40
2019-02-11T22:32:20.419Z,2.30
2019-02-11T22:37:48.149Z,2.30
2019-02-11T22:40:34.851Z,2.30
2019-02-11T22:43:14.668Z,2.20
2019-02-11T22:45:54.961Z,2.10
2019-02-11T22:48:35.280Z,2.10
2019-02-11T22:51:15.074Z,2.00
2019-02-11T22:53:54.890Z,1.90
2019-02-11T22:56:34.700Z,1.90
2019-02-11T22:59:14.641Z,1.90
2019-02-11T23:01:55.404Z,1.90
2019-02-11T23:04:35.101Z,1.80
2019-02-11T23:07:12.997Z,1.80
2019-02-11T23:09:59.827Z,1.80
2019-02-11T23:12:39.712Z,1.80
2019-02-11T23:15:19.737Z,1.80
2019-02-11T23:18:00.526Z,1.70
2019-02-11T23:20:40.452Z,1.70
2019-02-11T23:26:06.397Z,1.80
2019-02-11T23:28:46.332Z,1.90
2019-02-11T23:31:26.466Z,1.90
2019-02-11T23:34:06.889Z,1.90
2019-02-11T23:36:46.721Z,1.90
2019-02-11T23:39:26.886Z,1.90
2019-02-11T23:42:07.015Z,1.90
2019-02-11T23:44:47.008Z,2.00
2019-02-11T23:47:31.328Z,1.90
2019-02-11T23:50:11.602Z,2.00
2019-02-11T23:52:51.565Z,2.00
2019-02-11T23:55:31.685Z,1.90
2019-02-11T23:58:11.696Z,1.90
